University, MS

9:49 PM CDT on August 29, 2016 (GMT -0500)
APRSWXNET | | Change Station

Elev 495 ft 34.38 °N, 89.53 °W | Updated 16 minutes ago

Clear
Clear
82 °F
Feels Like 88 °F
N
4
Wind Variable Wind from ENE
Gusts 0.0 mph

Today
High -- | Low -- °F
--% Chance of Precip.
Yesterday
High -- | Low -- °F
Precip. -- in
Pressure 30.08 in
Visibility 10.0 miles
Clouds Clear
Heat Index 88 °F
Dew Point 74 °F
Humidity 76%
Rainfall in
Snow Depth Not available.
6:29 AM 7:27 PM
Waning Crescent, 5% visible
METAR KUOX 300235Z AUTO 05006KT 10SM CLR 26/22 A3008 RMK AO2
Pressure 30.08 in
Visibility 10.0 miles
Clouds Clear
Heat Index 88 °F
Dew Point 74 °F
Humidity 76%
Rainfall in
Snow Depth Not available.
6:29 AM 7:27 PM
Waning Crescent, 5% visible
METAR KUOX 300235Z AUTO 05006KT 10SM CLR 26/22 A3008 RMK AO2
Tropical Depression Nine was centered about 170 miles west-southwest of Key West, Florida, as of late Monday morning. The depression may struggle a bit in the southern Gulf of Mexico before finally making a Gulf Coast landfall later this week with soaking rain and gusty winds.

This latest system was designated a tropical depression Sunday after a Hurricane Hunter reconnaissance mission finally found a sufficiently organized low-pressure center with collocated shower and thunderstorm activity.

10-Day Weather Forecast

Almanac

Astronomy

Aug. 29, 2016 Rise Set
Actual Time
Civil Twilight
Nautical Twilight
Astronomical Twilight
Moon
Length of Visible Light
Length of Day
Tomorrow will be .
, % of the Moon is Illuminated

Today's Extremes

State Highs State Lows

Community

WunderPhotos

Upload Photos

1,935,747 photos uploaded!

WunderBlog® & News

Nearby

Air Quality

  Air Quality AQ Index Pollutant
Not available.

Snow Depth

Station Depth Elevation

Earthquake Activity

City Distance Mag. Time & Date
Minimum magnitude displayed is 2.5.

Coastal Water Temperatures

Place Temperature

Stations

Nearby Weather Stations

Station Location Temp. Windchill Dew Point Humidity Wind Precip. Elev Updated Type
                   

Watches & Warnings

There are currently no watches in effect.